createdAt,value
2017-02-09T00:00:44.116Z,0
2017-02-09T00:01:54.021Z,0
2017-02-09T00:03:03.940Z,0
2017-02-09T00:04:14.175Z,0
2017-02-09T00:05:24.067Z,0
2017-02-09T00:06:33.604Z,0
2017-02-09T00:07:43.843Z,0
2017-02-09T00:08:53.736Z,0
2017-02-09T00:10:02.871Z,0
2017-02-09T00:11:12.011Z,0
2017-02-09T00:12:22.698Z,0
2017-02-09T00:13:32.996Z,0
2017-02-09T00:14:42.899Z,0
2017-02-09T00:15:52.479Z,0
2017-02-09T00:17:01.995Z,0
2017-02-09T00:18:12.287Z,0
2017-02-09T00:19:21.815Z,0
2017-02-09T00:20:31.722Z,0
2017-02-09T00:21:40.812Z,0
2017-02-09T00:22:50.857Z,0
2017-02-09T00:24:01.150Z,0
2017-02-09T00:25:10.297Z,0
2017-02-09T00:26:19.815Z,0
2017-02-09T00:27:29.340Z,0
2017-02-09T00:28:38.863Z,0
2017-02-09T00:29:48.588Z,0
2017-02-09T00:30:57.731Z,0
2017-02-09T00:32:07.640Z,0
2017-02-09T00:33:17.543Z,0
2017-02-09T00:34:26.702Z,0
2017-02-09T00:35:35.852Z,0
2017-02-09T00:36:45.760Z,0
2017-02-09T00:37:55.487Z,0
2017-02-09T00:39:05.000Z,0
2017-02-09T00:40:14.524Z,0
2017-02-09T00:41:24.828Z,0
2017-02-09T00:42:35.507Z,0
2017-02-09T00:43:46.196Z,0
2017-02-09T00:44:55.713Z,0
2017-02-09T00:46:04.454Z,0
2017-02-09T00:47:14.367Z,0
2017-02-09T00:48:24.666Z,0
2017-02-09T00:49:34.971Z,0
2017-02-09T00:50:44.864Z,0
2017-02-09T00:51:54.717Z,0
2017-02-09T00:53:04.559Z,0
2017-02-09T00:54:14.458Z,0
2017-02-09T00:55:24.370Z,0
2017-02-09T00:56:34.669Z,0
2017-02-09T00:57:43.754Z,0
2017-02-09T00:58:54.041Z,0
2017-02-09T01:00:04.335Z,0
2017-02-09T01:01:13.416Z,0
2017-02-09T01:02:23.305Z,0
2017-02-09T01:03:33.210Z,0
2017-02-09T01:04:43.493Z,0
2017-02-09T01:05:53.009Z,0
2017-02-09T01:07:02.477Z,0
2017-02-09T01:08:11.550Z,0
2017-02-09T01:09:21.060Z,0
2017-02-09T01:10:31.368Z,0
2017-02-09T01:11:41.662Z,0
2017-02-09T01:12:52.341Z,0
2017-02-09T01:14:03.021Z,0
2017-02-09T01:15:13.651Z,0
2017-02-09T01:16:23.167Z,0
2017-02-09T01:17:33.467Z,0
2017-02-09T01:18:43.387Z,0
2017-02-09T01:19:53.680Z,0
2017-02-09T01:21:03.587Z,0
2017-02-09T01:22:13.496Z,0
2017-02-09T01:23:22.228Z,0
2017-02-09T01:24:32.111Z,0
2017-02-09T01:25:40.860Z,0
2017-02-09T01:26:50.382Z,0
2017-02-09T01:27:59.867Z,0
2017-02-09T01:29:09.412Z,0
2017-02-09T01:30:19.320Z,0
2017-02-09T01:31:29.626Z,0
2017-02-09T01:32:39.148Z,0
2017-02-09T01:33:49.443Z,0
2017-02-09T01:34:59.743Z,0
2017-02-09T01:36:09.655Z,0
2017-02-09T01:37:19.566Z,0
2017-02-09T01:38:28.696Z,0
2017-02-09T01:39:38.167Z,0
2017-02-09T01:40:47.674Z,0
2017-02-09T01:41:57.584Z,0
2017-02-09T01:43:07.879Z,0
2017-02-09T01:44:18.173Z,0
2017-02-09T01:45:28.413Z,0
2017-02-09T01:46:37.924Z,0
2017-02-09T01:47:47.777Z,0
2017-02-09T01:48:58.049Z,0
2017-02-09T01:50:07.959Z,0
2017-02-09T01:51:18.262Z,0
2017-02-09T01:52:28.165Z,0
2017-02-09T01:53:37.301Z,0
2017-02-09T01:54:47.988Z,0
2017-02-09T01:55:57.512Z,0
2017-02-09T01:57:07.418Z,0
2017-02-09T01:58:17.277Z,0
2017-02-09T01:59:27.555Z,0
2017-02-09T02:00:37.080Z,0
2017-02-09T02:01:46.601Z,0
2017-02-09T02:02:57.051Z,0
2017-02-09T02:04:06.905Z,0
2017-02-09T02:05:16.417Z,0
2017-02-09T02:06:25.556Z,0
2017-02-09T02:07:35.472Z,0
2017-02-09T02:08:44.995Z,0
2017-02-09T02:09:54.906Z,0
2017-02-09T02:11:04.425Z,0
2017-02-09T02:12:13.949Z,0
2017-02-09T02:13:23.081Z,0
2017-02-09T02:14:32.991Z,0
2017-02-09T02:15:43.287Z,0
2017-02-09T02:16:52.810Z,0
2017-02-09T02:18:03.136Z,0
2017-02-09T02:19:12.658Z,0
2017-02-09T02:20:22.165Z,0
2017-02-09T02:21:31.669Z,0
2017-02-09T02:22:41.960Z,0
2017-02-09T02:23:52.641Z,0
2017-02-09T02:25:01.395Z,0
2017-02-09T02:26:10.535Z,0
2017-02-09T02:27:20.773Z,0
2017-02-09T02:28:30.670Z,0
2017-02-09T02:29:41.355Z,0
2017-02-09T02:30:51.852Z,0
2017-02-09T02:32:01.764Z,0
2017-02-09T02:33:11.676Z,0
2017-02-09T02:34:21.591Z,0
2017-02-09T02:35:31.452Z,0
2017-02-09T02:36:41.780Z,0
2017-02-09T02:37:51.925Z,0
2017-02-09T02:39:01.452Z,0
2017-02-09T02:40:11.755Z,0
2017-02-09T02:41:22.059Z,0
2017-02-09T02:42:31.195Z,0
2017-02-09T02:43:40.664Z,0
2017-02-09T02:44:50.176Z,0
2017-02-09T02:45:59.309Z,0
2017-02-09T02:47:09.214Z,0
2017-02-09T02:48:18.736Z,0
2017-02-09T02:49:28.586Z,0
2017-02-09T02:50:38.035Z,0
2017-02-09T02:51:47.874Z,0
2017-02-09T02:52:57.384Z,0
2017-02-09T02:54:06.531Z,0
2017-02-09T02:55:16.382Z,0
2017-02-09T02:56:26.281Z,0
2017-02-09T02:57:35.999Z,0
2017-02-09T02:58:45.520Z,0
2017-02-09T02:59:55.429Z,0
2017-02-09T03:01:05.339Z,0
2017-02-09T03:02:15.246Z,0
2017-02-09T03:03:25.149Z,0
2017-02-09T03:04:34.617Z,0
2017-02-09T03:05:44.128Z,0
2017-02-09T03:06:53.599Z,0
2017-02-09T03:08:04.226Z,0
2017-02-09T03:09:13.741Z,0
2017-02-09T03:10:24.045Z,0
2017-02-09T03:11:34.351Z,0
2017-02-09T03:12:45.039Z,0
2017-02-09T03:13:55.381Z,0
2017-02-09T03:15:04.909Z,0
2017-02-09T03:16:14.822Z,0
2017-02-09T03:17:24.755Z,0
2017-02-09T03:18:34.279Z,0
2017-02-09T03:19:43.827Z,0
2017-02-09T03:20:53.299Z,0
2017-02-09T03:22:02.810Z,0
2017-02-09T03:23:13.101Z,0
2017-02-09T03:24:22.625Z,0
2017-02-09T03:25:32.140Z,0
2017-02-09T03:26:41.988Z,0
2017-02-09T03:27:51.483Z,0
2017-02-09T03:29:01.397Z,0
2017-02-09T03:30:10.921Z,0
2017-02-09T03:31:21.207Z,0
2017-02-09T03:32:31.056Z,0
2017-02-09T03:33:41.531Z,0
2017-02-09T03:34:51.820Z,0
2017-02-09T03:36:00.952Z,0
2017-02-09T03:37:10.089Z,0
2017-02-09T03:38:19.990Z,0
2017-02-09T03:39:29.511Z,0
2017-02-09T03:40:39.416Z,0
2017-02-09T03:41:49.267Z,0
2017-02-09T03:42:59.873Z,0
2017-02-09T03:44:09.325Z,0
2017-02-09T03:45:19.604Z,0
2017-02-09T03:46:29.509Z,0
2017-02-09T03:47:39.035Z,0
2017-02-09T03:48:48.943Z,0
2017-02-09T03:49:59.233Z,0
2017-02-09T03:51:08.758Z,0
2017-02-09T03:52:18.281Z,0
2017-02-09T03:53:28.938Z,0
2017-02-09T03:54:38.451Z,0
2017-02-09T03:55:48.734Z,0
2017-02-09T03:56:59.608Z,0
2017-02-09T03:58:09.514Z,0
2017-02-09T03:59:19.038Z,0
2017-02-09T04:00:29.722Z,0
2017-02-09T04:01:39.242Z,0
2017-02-09T04:02:49.535Z,0
2017-02-09T04:03:59.851Z,0
2017-02-09T04:05:09.716Z,0
2017-02-09T04:06:19.609Z,0
2017-02-09T04:07:29.125Z,0
2017-02-09T04:08:39.414Z,0
2017-02-09T04:09:49.316Z,0
2017-02-09T04:10:58.828Z,0
2017-02-09T04:12:09.120Z,0
2017-02-09T04:13:19.414Z,0
2017-02-09T04:14:29.118Z,0
2017-02-09T04:15:39.028Z,0
2017-02-09T04:16:47.727Z,0
2017-02-09T04:17:56.793Z,0
2017-02-09T04:19:06.301Z,0
2017-02-09T04:20:15.437Z,0
2017-02-09T04:21:24.902Z,0
2017-02-09T04:22:34.752Z,0
2017-02-09T04:23:44.205Z,0
2017-02-09T04:24:52.936Z,0
2017-02-09T04:26:02.452Z,0
2017-02-09T04:27:12.355Z,0
2017-02-09T04:28:21.867Z,0
2017-02-09T04:29:31.714Z,0
2017-02-09T04:30:41.608Z,0
2017-02-09T04:31:51.901Z,0
2017-02-09T04:33:02.196Z,0
2017-02-09T04:34:11.331Z,0
2017-02-09T04:35:20.424Z,0
2017-02-09T04:36:29.553Z,0
2017-02-09T04:37:39.453Z,0
2017-02-09T04:38:49.733Z,0
2017-02-09T04:39:59.638Z,0
2017-02-09T04:41:09.157Z,0
2017-02-09T04:42:18.680Z,0
2017-02-09T04:43:28.591Z,0
2017-02-09T04:44:37.734Z,0
2017-02-09T04:45:48.026Z,0
2017-02-09T04:46:58.698Z,0
2017-02-09T04:48:08.602Z,0
2017-02-09T04:49:18.518Z,0
2017-02-09T04:50:27.983Z,0
2017-02-09T04:51:37.877Z,0
2017-02-09T04:52:48.545Z,0
2017-02-09T04:53:58.445Z,0
2017-02-09T04:55:07.527Z,0
2017-02-09T04:56:17.047Z,0
2017-02-09T04:57:26.951Z,0
2017-02-09T04:58:36.855Z,0
2017-02-09T04:59:46.376Z,0
2017-02-09T05:00:56.283Z,0
2017-02-09T05:02:06.576Z,0
2017-02-09T05:03:16.096Z,0
2017-02-09T05:04:25.620Z,0
2017-02-09T05:05:34.758Z,0
2017-02-09T05:06:43.903Z,0
2017-02-09T05:07:53.421Z,0
2017-02-09T05:09:02.887Z,0
2017-02-09T05:10:13.563Z,0
2017-02-09T05:11:23.852Z,0
2017-02-09T05:12:33.380Z,0
2017-02-09T05:13:44.063Z,0
2017-02-09T05:14:53.969Z,0
2017-02-09T05:16:03.488Z,0
2017-02-09T05:17:13.345Z,0
2017-02-09T05:18:23.227Z,0
2017-02-09T05:19:33.145Z,0
2017-02-09T05:20:43.436Z,0
2017-02-09T05:21:53.678Z,0
2017-02-09T05:23:03.181Z,0
2017-02-09T05:24:13.858Z,0
2017-02-09T05:25:24.146Z,0
2017-02-09T05:26:34.051Z,0
2017-02-09T05:27:43.951Z,0
2017-02-09T05:28:53.470Z,0
2017-02-09T05:30:03.328Z,0
2017-02-09T05:31:12.446Z,0
2017-02-09T05:32:22.680Z,0
2017-02-09T05:33:32.950Z,0
2017-02-09T05:34:42.863Z,0
2017-02-09T05:35:52.392Z,0
2017-02-09T05:37:03.064Z,0
2017-02-09T05:38:12.968Z,0
2017-02-09T05:39:23.267Z,0
2017-02-09T05:40:33.559Z,0
2017-02-09T05:41:43.863Z,0
2017-02-09T05:42:53.634Z,0
2017-02-09T05:44:03.100Z,0
2017-02-09T05:45:12.983Z,0
2017-02-09T05:46:22.511Z,0
2017-02-09T05:47:32.026Z,0
2017-02-09T05:48:42.707Z,0
2017-02-09T05:49:52.615Z,0
2017-02-09T05:51:02.547Z,0
2017-02-09T05:52:12.067Z,0
2017-02-09T05:53:21.976Z,0
2017-02-09T05:54:32.472Z,0
2017-02-09T05:55:42.762Z,0
2017-02-09T05:56:52.666Z,0
2017-02-09T05:58:02.899Z,0
2017-02-09T05:59:12.405Z,0
2017-02-09T06:00:23.117Z,0
2017-02-09T06:01:32.645Z,0
2017-02-09T06:02:42.560Z,0
2017-02-09T06:03:52.473Z,0
2017-02-09T06:05:01.608Z,0
2017-02-09T06:06:11.130Z,0
2017-02-09T06:07:21.816Z,0
2017-02-09T06:08:31.342Z,0
2017-02-09T06:09:41.247Z,0
2017-02-09T06:10:50.774Z,0
2017-02-09T06:12:01.010Z,0
2017-02-09T06:13:10.898Z,0
2017-02-09T06:14:21.196Z,0
2017-02-09T06:15:30.727Z,0
2017-02-09T06:16:41.348Z,0
2017-02-09T06:17:50.850Z,0
2017-02-09T06:19:00.322Z,0
2017-02-09T06:20:09.830Z,0
2017-02-09T06:21:19.356Z,0
2017-02-09T06:22:28.880Z,0
2017-02-09T06:23:39.155Z,0
2017-02-09T06:24:49.068Z,0
2017-02-09T06:25:58.592Z,0
2017-02-09T06:27:08.512Z,0
2017-02-09T06:28:18.418Z,0
2017-02-09T06:29:28.329Z,0
2017-02-09T06:30:37.464Z,0
2017-02-09T06:31:46.935Z,0
2017-02-09T06:32:57.311Z,0
2017-02-09T06:34:06.843Z,0
2017-02-09T06:35:16.363Z,0
2017-02-09T06:36:25.888Z,0
2017-02-09T06:37:35.027Z,0
2017-02-09T06:38:44.549Z,0
2017-02-09T06:39:54.452Z,0
2017-02-09T06:41:04.355Z,0
2017-02-09T06:42:14.650Z,0
2017-02-09T06:43:24.557Z,0
2017-02-09T06:44:33.671Z,0
2017-02-09T06:45:43.570Z,0
2017-02-09T06:46:53.065Z,0
2017-02-09T06:48:03.788Z,0
2017-02-09T06:49:13.254Z,0
2017-02-09T06:50:23.151Z,0
2017-02-09T06:51:33.066Z,0
2017-02-09T06:52:42.977Z,0
2017-02-09T06:53:53.267Z,0
2017-02-09T06:55:03.116Z,0
2017-02-09T06:56:12.623Z,0
2017-02-09T06:57:22.532Z,0
2017-02-09T06:58:32.438Z,0
2017-02-09T06:59:42.350Z,4
2017-02-09T07:00:51.870Z,4
2017-02-09T07:02:01.784Z,0
2017-02-09T07:03:11.696Z,0
2017-02-09T07:04:22.031Z,4
2017-02-09T07:05:31.548Z,4
2017-02-09T07:06:40.630Z,0
2017-02-09T07:07:50.506Z,4
2017-02-09T07:09:00.134Z,4
2017-02-09T07:10:09.663Z,4
2017-02-09T07:11:19.581Z,4
2017-02-09T07:12:29.899Z,4
2017-02-09T07:13:39.039Z,4
2017-02-09T07:14:49.331Z,4
2017-02-09T07:15:58.859Z,4
2017-02-09T07:17:09.538Z,4
2017-02-09T07:18:19.845Z,8
2017-02-09T07:19:29.746Z,4
2017-02-09T07:20:39.598Z,4
2017-02-09T07:21:49.875Z,8
2017-02-09T07:22:59.365Z,4
2017-02-09T07:24:08.503Z,8
2017-02-09T07:25:18.019Z,252
2017-02-09T07:26:27.157Z,200
2017-02-09T07:27:37.846Z,200
2017-02-09T07:28:47.759Z,204
2017-02-09T07:29:57.669Z,204
2017-02-09T07:31:07.198Z,204
2017-02-09T07:32:17.110Z,204
2017-02-09T07:33:26.625Z,208
2017-02-09T07:34:36.150Z,208
2017-02-09T07:35:46.828Z,208
2017-02-09T07:36:56.348Z,212
2017-02-09T07:38:06.598Z,216
2017-02-09T07:39:16.868Z,216
2017-02-09T07:40:26.736Z,224
2017-02-09T07:41:36.665Z,228
2017-02-09T07:42:46.915Z,236
2017-02-09T07:43:56.821Z,244
2017-02-09T07:45:07.126Z,256
2017-02-09T07:46:16.978Z,260
2017-02-09T07:47:26.487Z,268
2017-02-09T07:48:36.381Z,268
2017-02-09T07:49:45.836Z,280
2017-02-09T07:50:54.951Z,284
2017-02-09T07:52:04.470Z,296
2017-02-09T07:53:14.371Z,308
2017-02-09T07:54:24.284Z,316
2017-02-09T07:55:33.815Z,320
2017-02-09T07:56:43.307Z,328
2017-02-09T07:57:53.932Z,336
2017-02-09T07:59:03.772Z,344
2017-02-09T08:00:13.284Z,364
2017-02-09T08:01:23.582Z,380
2017-02-09T08:02:33.107Z,396
2017-02-09T08:03:42.260Z,412
2017-02-09T08:04:52.171Z,432
2017-02-09T08:06:02.466Z,456
2017-02-09T08:07:11.966Z,476
2017-02-09T08:08:21.863Z,492
2017-02-09T08:09:31.772Z,516
2017-02-09T08:10:41.675Z,536
2017-02-09T08:11:51.968Z,556
2017-02-09T08:13:01.840Z,572
2017-02-09T08:14:11.354Z,584
2017-02-09T08:15:20.876Z,596
2017-02-09T08:16:30.787Z,620
2017-02-09T08:17:39.870Z,652
2017-02-09T08:18:49.767Z,692
2017-02-09T08:19:59.685Z,720
2017-02-09T08:21:08.838Z,748
2017-02-09T08:22:18.365Z,764
2017-02-09T08:23:28.285Z,788
2017-02-09T08:24:38.015Z,820
2017-02-09T08:25:48.307Z,864
2017-02-09T08:26:57.442Z,904
2017-02-09T08:28:06.188Z,920
2017-02-09T08:29:14.971Z,920
2017-02-09T08:30:24.437Z,920
2017-02-09T08:31:34.329Z,920
2017-02-09T08:32:43.459Z,952
2017-02-09T08:33:52.978Z,980
2017-02-09T08:35:03.278Z,1008
2017-02-09T08:36:13.189Z,1032
2017-02-09T08:37:23.109Z,1028
2017-02-09T08:38:33.402Z,1036
2017-02-09T08:39:43.259Z,1044
2017-02-09T08:40:52.372Z,1060
2017-02-09T08:42:01.838Z,1076
2017-02-09T08:43:10.941Z,1072
2017-02-09T08:44:20.027Z,1060
2017-02-09T08:45:29.922Z,1064
2017-02-09T08:46:39.844Z,1108
2017-02-09T08:47:49.698Z,1124
2017-02-09T08:48:58.817Z,1176
2017-02-09T08:50:07.899Z,1288
2017-02-09T08:51:17.027Z,1408
2017-02-09T08:52:26.501Z,1524
2017-02-09T08:53:35.957Z,1584
2017-02-09T08:54:45.465Z,1728
2017-02-09T08:55:55.479Z,1956
2017-02-09T08:57:05.383Z,2284
2017-02-09T08:58:15.297Z,2524
2017-02-09T08:59:25.211Z,2548
2017-02-09T09:00:34.351Z,2656
2017-02-09T09:01:44.208Z,2876
2017-02-09T09:02:54.434Z,3024
2017-02-09T09:04:03.570Z,3056
2017-02-09T09:05:13.486Z,3212
2017-02-09T09:06:22.618Z,3028
2017-02-09T09:07:32.142Z,2920
2017-02-09T09:08:41.998Z,2892
2017-02-09T09:09:51.513Z,3088
2017-02-09T09:11:01.426Z,4176
2017-02-09T09:12:11.279Z,2996
2017-02-09T09:13:20.497Z,2940
2017-02-09T09:14:30.002Z,2920
2017-02-09T09:15:40.299Z,2832
2017-02-09T09:16:50.200Z,2848
2017-02-09T09:18:00.490Z,2748
2017-02-09T09:19:10.403Z,2564
2017-02-09T09:20:20.694Z,2424
2017-02-09T09:21:30.544Z,2464
2017-02-09T09:22:39.637Z,2580
2017-02-09T09:23:48.390Z,2696
2017-02-09T09:24:58.695Z,2816
2017-02-09T09:26:07.842Z,2964
2017-02-09T09:27:17.364Z,3048
2017-02-09T09:28:27.262Z,3032
2017-02-09T09:29:36.789Z,3012
2017-02-09T09:30:45.929Z,3052
2017-02-09T09:31:55.453Z,3008
2017-02-09T09:33:04.939Z,2980
2017-02-09T09:34:14.396Z,3176
2017-02-09T09:35:23.916Z,2972
2017-02-09T09:36:33.442Z,2848
2017-02-09T09:37:42.963Z,2752
2017-02-09T09:38:52.053Z,2696
2017-02-09T09:40:00.828Z,2736
2017-02-09T09:41:09.921Z,2924
2017-02-09T09:42:20.199Z,2888
2017-02-09T09:43:29.666Z,2936
2017-02-09T09:44:38.789Z,2900
2017-02-09T09:45:49.087Z,2932
2017-02-09T09:46:58.999Z,3144
2017-02-09T09:48:08.527Z,3468
2017-02-09T09:49:18.825Z,3776
2017-02-09T09:50:28.738Z,4128
2017-02-09T09:51:38.653Z,4476
2017-02-09T09:52:48.185Z,4572
2017-02-09T09:53:57.703Z,4732
2017-02-09T09:55:07.234Z,6404
2017-02-09T09:56:15.933Z,5192
2017-02-09T09:57:25.057Z,5172
2017-02-09T09:58:34.585Z,4804
2017-02-09T09:59:43.717Z,5196
2017-02-09T10:00:52.858Z,4868
2017-02-09T10:02:03.155Z,5040
2017-02-09T10:03:13.063Z,5804
2017-02-09T10:04:22.973Z,6132
2017-02-09T10:05:32.883Z,7352
2017-02-09T10:06:43.123Z,8848
2017-02-09T10:07:52.285Z,9460
2017-02-09T10:09:01.424Z,10364
2017-02-09T10:10:12.107Z,9544
2017-02-09T10:11:21.637Z,10244
2017-02-09T10:12:31.164Z,9760
2017-02-09T10:13:41.566Z,14056
2017-02-09T10:14:51.484Z,9944
2017-02-09T10:16:01.394Z,8888
2017-02-09T10:17:11.629Z,6832
2017-02-09T10:18:20.739Z,10432
2017-02-09T10:19:30.252Z,10680
2017-02-09T10:20:40.166Z,9860
2017-02-09T10:21:50.047Z,9068
2017-02-09T10:22:59.568Z,9024
2017-02-09T10:24:09.475Z,7844
2017-02-09T10:25:18.617Z,8476
2017-02-09T10:26:28.141Z,8880
2017-02-09T10:27:37.668Z,9540
2017-02-09T10:28:47.191Z,10308
2017-02-09T10:29:57.105Z,10052
2017-02-09T10:31:06.629Z,9500
2017-02-09T10:32:16.154Z,8224
2017-02-09T10:33:26.066Z,8672
2017-02-09T10:34:35.586Z,9744
2017-02-09T10:35:44.730Z,10040
2017-02-09T10:36:54.694Z,15736
2017-02-09T10:38:03.831Z,14432
2017-02-09T10:39:14.509Z,12100
2017-02-09T10:40:24.419Z,11560
2017-02-09T10:41:34.334Z,11140
2017-02-09T10:42:43.808Z,10128
2017-02-09T10:43:53.322Z,10536
2017-02-09T10:45:04.003Z,8436
2017-02-09T10:46:13.530Z,6896
2017-02-09T10:47:23.835Z,6576
2017-02-09T10:48:33.752Z,6812
2017-02-09T10:49:43.279Z,6420
2017-02-09T10:50:53.524Z,5652
2017-02-09T10:52:04.135Z,5212
2017-02-09T10:53:13.263Z,4184
2017-02-09T10:54:23.948Z,4672
2017-02-09T10:55:34.255Z,4280
2017-02-09T10:56:44.176Z,4888
2017-02-09T10:57:54.085Z,4888
2017-02-09T10:59:03.550Z,5112
2017-02-09T11:00:13.462Z,5476
2017-02-09T11:01:23.380Z,5492
2017-02-09T11:02:33.327Z,5948
2017-02-09T11:03:43.224Z,6120
2017-02-09T11:04:53.137Z,6920
2017-02-09T11:06:03.056Z,6708
2017-02-09T11:07:13.759Z,6452
2017-02-09T11:08:23.615Z,7300
2017-02-09T11:09:33.901Z,7292
2017-02-09T11:10:43.811Z,7484
2017-02-09T11:11:52.961Z,6600
2017-02-09T11:13:02.264Z,6652
2017-02-09T11:14:12.121Z,6192
2017-02-09T11:15:22.018Z,6480
2017-02-09T11:16:32.313Z,6304
2017-02-09T11:17:42.995Z,6188
2017-02-09T11:18:53.292Z,5912
2017-02-09T11:20:03.199Z,5884
2017-02-09T11:21:13.109Z,5128
2017-02-09T11:22:23.410Z,5592
2017-02-09T11:23:33.318Z,6012
2017-02-09T11:24:42.845Z,6568
2017-02-09T11:25:52.704Z,6332
2017-02-09T11:27:02.600Z,6404
2017-02-09T11:28:12.128Z,6796
2017-02-09T11:29:21.654Z,6776
2017-02-09T11:30:31.123Z,6472
2017-02-09T11:31:40.251Z,6244
2017-02-09T11:32:50.168Z,5632
2017-02-09T11:34:00.078Z,5608
2017-02-09T11:35:09.225Z,5476
2017-02-09T11:36:18.753Z,5352
2017-02-09T11:37:28.223Z,5148
2017-02-09T11:38:38.125Z,5368
2017-02-09T11:39:49.022Z,5552
2017-02-09T11:40:58.940Z,5572
2017-02-09T11:42:08.857Z,5428
2017-02-09T11:43:18.802Z,5892
2017-02-09T11:44:28.724Z,6220
2017-02-09T11:45:39.050Z,6384
2017-02-09T11:46:48.969Z,6404
2017-02-09T11:47:58.884Z,6180
2017-02-09T11:49:08.801Z,6080
2017-02-09T11:50:17.564Z,6028
2017-02-09T11:51:27.096Z,6416
2017-02-09T11:52:36.236Z,6776
2017-02-09T11:53:45.384Z,6648
2017-02-09T11:54:54.146Z,5976
2017-02-09T11:56:03.680Z,5364
2017-02-09T11:57:13.964Z,5152
2017-02-09T11:58:23.102Z,5052
2017-02-09T11:59:32.197Z,4940
2017-02-09T12:00:41.323Z,4908
2017-02-09T12:01:50.794Z,4860
2017-02-09T12:03:00.698Z,4836
2017-02-09T12:04:10.229Z,4772
2017-02-09T12:05:20.530Z,4808
2017-02-09T12:06:30.830Z,4840
2017-02-09T12:07:40.748Z,4712
2017-02-09T12:08:50.274Z,4712
2017-02-09T12:10:00.183Z,4752
2017-02-09T12:11:09.325Z,4892
2017-02-09T12:12:18.806Z,4852
2017-02-09T12:13:28.264Z,4764
2017-02-09T12:14:38.168Z,4596
2017-02-09T12:15:48.031Z,4552
2017-02-09T12:16:57.154Z,4796
2017-02-09T12:18:06.687Z,4808
2017-02-09T12:19:16.987Z,4608
2017-02-09T12:20:26.134Z,4224
2017-02-09T12:21:35.260Z,3988
2017-02-09T12:22:44.401Z,4052
2017-02-09T12:23:53.923Z,4192
2017-02-09T12:25:03.943Z,4360
2017-02-09T12:26:13.095Z,4452
2017-02-09T12:27:22.631Z,4296
2017-02-09T12:28:32.554Z,4304
2017-02-09T12:29:41.690Z,4124
2017-02-09T12:30:51.217Z,4208
2017-02-09T12:32:00.749Z,4144
2017-02-09T12:33:10.265Z,3964
2017-02-09T12:34:20.565Z,3872
2017-02-09T12:35:30.805Z,3864
2017-02-09T12:36:40.326Z,3892
2017-02-09T12:37:49.467Z,3880
2017-02-09T12:38:59.380Z,3772
2017-02-09T12:40:08.868Z,3668
2017-02-09T12:41:17.992Z,3616
2017-02-09T12:42:28.288Z,3716
2017-02-09T12:43:38.582Z,3784
2017-02-09T12:44:48.886Z,3768
2017-02-09T12:45:57.973Z,3724
2017-02-09T12:47:07.502Z,3584
2017-02-09T12:48:17.037Z,3548
2017-02-09T12:49:26.565Z,3720
2017-02-09T12:50:36.097Z,3748
2017-02-09T12:51:46.010Z,3576
2017-02-09T12:52:55.150Z,3480
2017-02-09T12:54:04.672Z,3520
2017-02-09T12:55:14.965Z,3448
2017-02-09T12:56:24.106Z,3280
2017-02-09T12:57:34.422Z,2840
2017-02-09T12:58:44.731Z,2980
2017-02-09T12:59:54.644Z,3044
2017-02-09T13:01:04.171Z,3172
2017-02-09T13:02:14.467Z,3252
2017-02-09T13:03:24.373Z,3276
2017-02-09T13:04:33.906Z,3376
2017-02-09T13:05:44.590Z,3412
2017-02-09T13:06:54.121Z,3364
2017-02-09T13:08:03.271Z,2872
2017-02-09T13:09:12.413Z,2940
2017-02-09T13:10:22.108Z,2884
2017-02-09T13:11:32.001Z,3208
2017-02-09T13:12:41.510Z,2924
2017-02-09T13:13:51.431Z,2716
2017-02-09T13:15:00.904Z,2780
2017-02-09T13:16:11.192Z,2612
2017-02-09T13:17:21.107Z,2508
2017-02-09T13:18:30.636Z,2284
2017-02-09T13:19:40.554Z,2256
2017-02-09T13:20:50.468Z,2124
2017-02-09T13:21:59.606Z,1988
2017-02-09T13:23:09.511Z,1988
2017-02-09T13:24:18.650Z,1960
2017-02-09T13:25:28.557Z,1948
2017-02-09T13:26:37.697Z,2028
2017-02-09T13:27:47.219Z,2200
2017-02-09T13:28:57.144Z,2340
2017-02-09T13:30:07.056Z,2400
2017-02-09T13:31:16.906Z,2428
2017-02-09T13:32:26.420Z,2340
2017-02-09T13:33:36.326Z,2200
2017-02-09T13:34:46.958Z,2132
2017-02-09T13:35:56.334Z,2096
2017-02-09T13:37:05.459Z,2072
2017-02-09T13:38:14.594Z,2140
2017-02-09T13:39:24.499Z,2400
2017-02-09T13:40:34.797Z,2592
2017-02-09T13:41:44.719Z,2628
2017-02-09T13:42:54.242Z,2540
2017-02-09T13:44:05.071Z,2520
2017-02-09T13:45:14.197Z,2520
2017-02-09T13:46:22.958Z,2548
2017-02-09T13:47:32.485Z,2504
2017-02-09T13:48:43.164Z,2376
2017-02-09T13:49:52.693Z,2248
2017-02-09T13:51:02.224Z,2176
2017-02-09T13:52:11.756Z,2204
2017-02-09T13:53:20.887Z,2196
2017-02-09T13:54:30.363Z,2184
2017-02-09T13:55:39.877Z,2108
2017-02-09T13:56:49.023Z,2164
2017-02-09T13:57:58.556Z,2212
2017-02-09T13:59:09.240Z,2208
2017-02-09T14:00:18.776Z,2200
2017-02-09T14:01:29.462Z,2084
2017-02-09T14:02:39.374Z,1832
2017-02-09T14:03:49.702Z,1752
2017-02-09T14:04:59.559Z,1784
2017-02-09T14:06:09.789Z,1840
2017-02-09T14:07:20.063Z,1900
2017-02-09T14:08:29.199Z,1840
2017-02-09T14:09:38.723Z,1692
2017-02-09T14:10:48.249Z,1676
2017-02-09T14:11:57.779Z,1648
2017-02-09T14:13:07.688Z,1584
2017-02-09T14:14:17.603Z,1504
2017-02-09T14:15:27.518Z,1536
2017-02-09T14:16:36.655Z,1560
2017-02-09T14:17:46.963Z,1544
2017-02-09T14:18:56.973Z,1496
2017-02-09T14:20:06.451Z,1472
2017-02-09T14:21:16.348Z,1404
2017-02-09T14:22:26.853Z,1304
2017-02-09T14:23:37.573Z,1224
2017-02-09T14:24:47.486Z,1188
2017-02-09T14:25:57.370Z,1192
2017-02-09T14:27:07.239Z,1260
2017-02-09T14:28:17.096Z,1228
2017-02-09T14:29:26.603Z,1156
2017-02-09T14:30:36.896Z,1112
2017-02-09T14:31:47.195Z,1084
2017-02-09T14:32:57.159Z,1040
2017-02-09T14:34:07.463Z,992
2017-02-09T14:35:16.550Z,948
2017-02-09T14:36:26.059Z,904
2017-02-09T14:37:34.822Z,876
2017-02-09T14:38:45.452Z,844
2017-02-09T14:39:55.353Z,808
2017-02-09T14:41:05.653Z,788
2017-02-09T14:42:15.571Z,764
2017-02-09T14:43:24.672Z,740
2017-02-09T14:44:34.571Z,716
2017-02-09T14:45:44.870Z,708
2017-02-09T14:46:54.792Z,712
2017-02-09T14:48:03.798Z,724
2017-02-09T14:49:13.322Z,740
2017-02-09T14:50:23.232Z,764
2017-02-09T14:51:33.534Z,796
2017-02-09T14:52:43.450Z,828
2017-02-09T14:53:53.353Z,828
2017-02-09T14:55:03.655Z,816
2017-02-09T14:56:12.793Z,820
2017-02-09T14:57:22.321Z,808
2017-02-09T14:58:31.465Z,796
2017-02-09T14:59:40.997Z,780
2017-02-09T15:00:50.137Z,768
2017-02-09T15:01:59.710Z,756
2017-02-09T15:03:09.237Z,752
2017-02-09T15:04:18.019Z,748
2017-02-09T15:05:27.153Z,744
2017-02-09T15:06:36.293Z,740
2017-02-09T15:07:46.538Z,732
2017-02-09T15:08:56.383Z,724
2017-02-09T15:10:05.754Z,716
2017-02-09T15:11:14.897Z,704
2017-02-09T15:12:25.583Z,696
2017-02-09T15:13:35.057Z,688
2017-02-09T15:14:45.672Z,676
2017-02-09T15:15:55.187Z,664
2017-02-09T15:17:05.148Z,652
2017-02-09T15:18:15.000Z,644
2017-02-09T15:19:25.277Z,636
2017-02-09T15:20:34.407Z,624
2017-02-09T15:21:44.227Z,600
2017-02-09T15:22:53.362Z,588
2017-02-09T15:24:02.888Z,568
2017-02-09T15:25:11.586Z,552
2017-02-09T15:26:20.652Z,536
2017-02-09T15:27:30.161Z,516
2017-02-09T15:28:40.470Z,500
2017-02-09T15:29:49.616Z,488
2017-02-09T15:30:58.764Z,480
2017-02-09T15:32:07.510Z,468
2017-02-09T15:33:17.427Z,456
2017-02-09T15:34:28.262Z,448
2017-02-09T15:35:37.797Z,440
2017-02-09T15:36:47.708Z,432
2017-02-09T15:37:56.858Z,420
2017-02-09T15:39:07.542Z,408
2017-02-09T15:40:17.064Z,400
2017-02-09T15:41:26.536Z,388
2017-02-09T15:42:36.439Z,380
2017-02-09T15:43:45.395Z,372
2017-02-09T15:44:54.922Z,364
2017-02-09T15:46:04.448Z,352
2017-02-09T15:47:14.365Z,344
2017-02-09T15:48:25.050Z,332
2017-02-09T15:49:35.352Z,324
2017-02-09T15:50:45.651Z,312
2017-02-09T15:51:54.788Z,300
2017-02-09T15:53:04.698Z,292
2017-02-09T15:54:14.612Z,280
2017-02-09T15:55:24.726Z,276
2017-02-09T15:56:34.651Z,264
2017-02-09T15:57:44.515Z,260
2017-02-09T15:58:54.025Z,252
2017-02-09T16:00:03.937Z,244
2017-02-09T16:01:13.793Z,236
2017-02-09T16:02:22.924Z,228
2017-02-09T16:03:33.553Z,220
2017-02-09T16:04:43.064Z,216
2017-02-09T16:05:53.359Z,208
2017-02-09T16:07:03.624Z,204
2017-02-09T16:08:12.376Z,196
2017-02-09T16:09:22.670Z,192
2017-02-09T16:10:32.914Z,184
2017-02-09T16:11:42.430Z,172
2017-02-09T16:12:52.340Z,168
2017-02-09T16:14:01.860Z,156
2017-02-09T16:15:12.156Z,144
2017-02-09T16:16:21.294Z,132
2017-02-09T16:17:30.795Z,120
2017-02-09T16:18:41.099Z,108